createdAt,value
2018-07-20T00:00:43.323Z,100618.39
2018-07-20T00:01:46.689Z,100624.97
2018-07-20T00:02:50.084Z,100628.13
2018-07-20T00:03:53.481Z,100626.73
2018-07-20T00:04:56.925Z,100623.95
2018-07-20T00:06:00.324Z,100625.94
2018-07-20T00:07:03.786Z,100627.54
2018-07-20T00:08:07.227Z,100629.52
2018-07-20T00:09:10.796Z,100619.78
2018-07-20T00:10:14.196Z,100618.60
2018-07-20T00:11:17.679Z,100617.00
2018-07-20T00:12:21.105Z,100617.00
2018-07-20T00:13:24.557Z,100617.59
2018-07-20T00:14:27.952Z,100613.63
2018-07-20T00:15:31.369Z,100615.61
2018-07-20T00:16:34.773Z,100610.84
2018-07-20T00:17:38.175Z,100614.22
2018-07-20T00:18:41.906Z,100610.04
2018-07-20T00:19:45.325Z,100610.63
2018-07-20T00:20:48.749Z,100609.83
2018-07-20T00:21:52.146Z,100611.22
2018-07-20T00:22:55.528Z,100607.05
2018-07-20T00:23:58.938Z,100610.98
2018-07-20T00:25:02.352Z,100609.59
2018-07-20T00:26:06.607Z,100607.39
2018-07-20T00:27:09.973Z,100606.24
2018-07-20T00:28:13.611Z,100609.59
2018-07-20T00:29:17.026Z,100608.19
2018-07-20T00:30:20.627Z,100609.95
2018-07-20T00:31:24.066Z,100606.59
2018-07-20T00:32:27.453Z,100609.38
2018-07-20T00:33:30.845Z,100610.77
2018-07-20T00:34:34.280Z,100606.59
2018-07-20T00:35:37.663Z,100606.00
2018-07-20T00:36:41.074Z,100603.80
2018-07-20T00:37:44.504Z,100601.23
2018-07-20T00:38:47.904Z,100602.63
2018-07-20T00:39:51.282Z,100606.24
2018-07-20T00:40:54.661Z,100607.05
2018-07-20T00:41:58.076Z,100603.46
2018-07-20T00:43:01.466Z,100603.46
2018-07-20T00:44:04.907Z,100607.84
2018-07-20T00:45:08.290Z,100608.44
2018-07-20T00:46:11.686Z,100602.87
2018-07-20T00:47:15.070Z,100600.89
2018-07-20T00:48:18.495Z,100599.84
2018-07-20T00:49:21.944Z,100601.48
2018-07-20T00:50:25.337Z,100598.70
2018-07-20T00:51:28.707Z,100595.67
2018-07-20T00:52:32.740Z,100596.50
2018-07-20T00:53:37.867Z,100594.73
2018-07-20T00:54:41.285Z,100590.94
2018-07-20T00:55:44.657Z,100593.13
2018-07-20T00:56:48.062Z,100590.35
2018-07-20T00:57:51.496Z,100593.94
2018-07-20T00:58:54.936Z,100592.55
2018-07-20T00:59:58.384Z,100589.39
2018-07-20T01:01:01.791Z,100591.95
2018-07-20T01:02:05.262Z,100593.56
2018-07-20T01:03:08.662Z,100596.34
2018-07-20T01:04:12.056Z,100595.38
2018-07-20T01:05:15.456Z,100593.98
2018-07-20T01:06:18.849Z,100590.41
2018-07-20T01:07:22.403Z,100591.20
2018-07-20T01:08:25.812Z,100592.59
2018-07-20T01:09:29.198Z,100594.58
2018-07-20T01:10:32.628Z,100589.02
2018-07-20T01:11:36.052Z,100589.81
2018-07-20T01:12:39.461Z,100593.19
2018-07-20T01:13:42.884Z,100591.58
2018-07-20T01:14:46.292Z,100590.78
2018-07-20T01:15:49.662Z,100590.19
2018-07-20T01:16:53.175Z,100594.95
2018-07-20T01:17:56.589Z,100594.95
2018-07-20T01:19:00.004Z,100596.34
2018-07-20T01:20:04.124Z,100597.95
2018-07-20T01:21:07.887Z,100590.78
2018-07-20T01:22:11.276Z,100596.34
2018-07-20T01:23:14.679Z,100595.75
2018-07-20T01:24:18.141Z,100588.00
2018-07-20T01:25:21.545Z,100589.39
2018-07-20T01:26:24.926Z,100588.21
2018-07-20T01:27:28.331Z,100589.02
2018-07-20T01:28:31.740Z,100582.64
2018-07-20T01:29:35.194Z,100589.81
2018-07-20T01:30:38.595Z,100587.03
2018-07-20T01:31:41.992Z,100586.82
2018-07-20T01:32:45.408Z,100587.03
2018-07-20T01:33:48.786Z,100588.64
2018-07-20T01:34:52.185Z,100587.25
2018-07-20T01:35:55.614Z,100586.66
2018-07-20T01:36:58.995Z,100585.85
2018-07-20T01:38:02.370Z,100583.88
2018-07-20T01:39:07.370Z,100581.68
2018-07-20T01:40:10.768Z,100582.86
2018-07-20T01:41:14.152Z,100584.46
2018-07-20T01:42:17.534Z,100586.66
2018-07-20T01:43:20.940Z,100584.46
2018-07-20T01:44:24.324Z,100585.85
2018-07-20T01:45:27.701Z,100581.47
2018-07-20T01:46:31.226Z,100579.86
2018-07-20T01:47:35.323Z,100582.86
2018-07-20T01:48:38.723Z,100582.86
2018-07-20T01:49:42.118Z,100580.08
2018-07-20T01:50:45.506Z,100582.86
2018-07-20T01:51:48.873Z,100576.48
2018-07-20T01:52:52.253Z,100581.47
2018-07-20T01:53:55.662Z,100584.46
2018-07-20T01:54:59.055Z,100578.69
2018-07-20T01:56:02.459Z,100581.47
2018-07-20T01:57:05.880Z,100579.48
2018-07-20T01:58:09.257Z,100577.30
2018-07-20T01:59:12.656Z,100579.27
2018-07-20T02:00:16.016Z,100574.30
2018-07-20T02:01:19.516Z,100578.47
2018-07-20T02:02:22.904Z,100579.06
2018-07-20T02:03:26.289Z,100577.08
2018-07-20T02:04:29.676Z,100577.30
2018-07-20T02:05:33.090Z,100575.69
2018-07-20T02:06:36.688Z,100577.88
2018-07-20T02:07:40.083Z,100574.30
2018-07-20T02:08:43.461Z,100578.69
2018-07-20T02:09:46.876Z,100573.13
2018-07-20T02:10:56.630Z,100576.70
2018-07-20T02:12:00.027Z,100574.30
2018-07-20T02:13:03.460Z,100577.88
2018-07-20T02:14:06.996Z,100574.08
2018-07-20T02:15:10.385Z,100572.10
2018-07-20T02:16:13.786Z,100575.47
2018-07-20T02:17:17.192Z,100579.06
2018-07-20T02:18:20.609Z,100579.06
2018-07-20T02:19:23.999Z,100577.67
2018-07-20T02:20:27.417Z,100576.06
2018-07-20T02:21:30.817Z,100575.47
2018-07-20T02:22:34.248Z,100574.67
2018-07-20T02:23:37.632Z,100577.45
2018-07-20T02:24:41.069Z,100578.63
2018-07-20T02:25:44.526Z,100582.22
2018-07-20T02:26:47.916Z,100577.83
2018-07-20T02:27:51.316Z,100576.44
2018-07-20T02:28:54.696Z,100579.22
2018-07-20T02:29:58.071Z,100579.22
2018-07-20T02:31:01.471Z,100578.98
2018-07-20T02:32:04.884Z,100577.03
2018-07-20T02:33:08.293Z,100579.81
2018-07-20T02:34:11.691Z,100579.81
2018-07-20T02:35:15.133Z,100580.16
2018-07-20T02:36:18.629Z,100575.98
2018-07-20T02:37:22.035Z,100578.77
2018-07-20T02:38:25.441Z,100574.80
2018-07-20T02:39:28.810Z,100580.37
2018-07-20T02:40:32.199Z,100573.66
2018-07-20T02:41:35.604Z,100571.81
2018-07-20T02:42:39.012Z,100573.41
2018-07-20T02:43:42.460Z,100576.20
2018-07-20T02:44:45.844Z,100571.46
2018-07-20T02:45:49.229Z,100572.02
2018-07-20T02:46:52.597Z,100569.83
2018-07-20T02:47:55.970Z,100573.41
2018-07-20T02:48:59.375Z,100566.45
2018-07-20T02:50:02.791Z,100566.24
2018-07-20T02:51:06.426Z,100570.42
2018-07-20T02:52:09.849Z,100572.40
2018-07-20T02:53:13.249Z,100572.40
2018-07-20T02:54:16.680Z,100571.01
2018-07-20T02:55:20.276Z,100566.03
2018-07-20T02:56:23.671Z,100567.42
2018-07-20T02:57:27.079Z,100563.03
2018-07-20T02:58:30.458Z,100568.39
2018-07-20T02:59:33.873Z,100562.83
2018-07-20T03:00:37.279Z,100562.83
2018-07-20T03:01:40.668Z,100564.42
2018-07-20T03:02:44.068Z,100572.56
2018-07-20T03:03:47.465Z,100567.59
2018-07-20T03:04:50.897Z,100569.56
2018-07-20T03:05:54.673Z,100573.73
2018-07-20T03:06:58.216Z,100573.95
2018-07-20T03:08:01.591Z,100570.95
2018-07-20T03:09:08.895Z,100573.15
2018-07-20T03:10:12.281Z,100571.76
2018-07-20T03:11:15.889Z,100568.98
2018-07-20T03:12:19.308Z,100564.80
2018-07-20T03:13:22.701Z,100569.78
2018-07-20T03:14:26.107Z,100565.61
2018-07-20T03:15:29.555Z,100564.80
2018-07-20T03:16:32.979Z,100567.00
2018-07-20T03:17:36.343Z,100567.80
2018-07-20T03:18:39.739Z,100572.56
2018-07-20T03:19:43.156Z,100573.36
2018-07-20T03:20:46.570Z,100570.58
2018-07-20T03:21:50.103Z,100570.37
2018-07-20T03:22:53.504Z,100567.00
2018-07-20T03:23:56.914Z,100567.59
2018-07-20T03:25:00.294Z,100569.19
2018-07-20T03:26:03.724Z,100573.36
2018-07-20T03:27:07.132Z,100566.56
2018-07-20T03:28:10.512Z,100566.78
2018-07-20T03:29:13.932Z,100563.20
2018-07-20T03:30:17.530Z,100562.39
2018-07-20T03:31:20.956Z,100561.22
2018-07-20T03:32:24.376Z,100561.59
2018-07-20T03:33:27.792Z,100561.81
2018-07-20T03:34:31.192Z,100561.00
2018-07-20T03:35:34.625Z,100560.79
2018-07-20T03:36:38.044Z,100564.38
2018-07-20T03:37:41.444Z,100567.75
2018-07-20T03:38:44.868Z,100566.14
2018-07-20T03:39:48.260Z,100569.73
2018-07-20T03:40:51.675Z,100569.73
2018-07-20T03:41:55.120Z,100563.36
2018-07-20T03:42:58.563Z,100561.75
2018-07-20T03:44:01.952Z,100566.14
2018-07-20T03:45:06.163Z,100560.58
2018-07-20T03:46:09.560Z,100560.58
2018-07-20T03:47:13.332Z,100561.16
2018-07-20T03:48:16.830Z,100561.16
2018-07-20T03:49:20.238Z,100559.77
2018-07-20T03:50:23.649Z,100558.97
2018-07-20T03:51:27.029Z,100560.36
2018-07-20T03:52:30.454Z,100557.80
2018-07-20T03:53:33.933Z,100552.61
2018-07-20T03:54:37.337Z,100552.02
2018-07-20T03:55:40.719Z,100557.37
2018-07-20T03:56:44.089Z,100552.02
2018-07-20T03:57:47.671Z,100554.00
2018-07-20T03:58:51.037Z,100555.98
2018-07-20T03:59:54.413Z,100549.83
2018-07-20T04:00:57.802Z,100553.20
2018-07-20T04:02:01.183Z,100556.78
2018-07-20T04:03:04.643Z,100551.59
2018-07-20T04:04:08.058Z,100546.03
2018-07-20T04:05:11.472Z,100548.81
2018-07-20T04:06:14.837Z,100538.64
2018-07-20T04:07:18.228Z,100541.22
2018-07-20T04:08:21.625Z,100544.34
2018-07-20T04:09:25.076Z,100539.37
2018-07-20T04:10:28.486Z,100539.95
2018-07-20T04:11:31.911Z,100541.94
2018-07-20T04:12:35.286Z,100540.33
2018-07-20T04:13:38.698Z,100541.34
2018-07-20T04:14:42.074Z,100535.57
2018-07-20T04:15:45.486Z,100535.57
2018-07-20T04:16:48.872Z,100544.50
2018-07-20T04:17:52.247Z,100540.12
2018-07-20T04:18:55.664Z,100534.34
2018-07-20T04:19:59.162Z,100537.12
2018-07-20T04:21:02.592Z,100538.52
2018-07-20T04:22:05.995Z,100538.30
2018-07-20T04:23:09.402Z,100538.30
2018-07-20T04:24:12.964Z,100529.74
2018-07-20T04:25:16.356Z,100536.11
2018-07-20T04:26:19.776Z,100535.89
2018-07-20T04:27:23.169Z,100535.89
2018-07-20T04:28:26.556Z,100535.09
2018-07-20T04:29:30.141Z,100530.12
2018-07-20T04:30:33.556Z,100530.92
2018-07-20T04:31:36.945Z,100535.09
2018-07-20T04:32:40.333Z,100532.09
2018-07-20T04:33:43.766Z,100535.09
2018-07-20T04:34:47.158Z,100526.53
2018-07-20T04:35:50.579Z,100529.31
2018-07-20T04:36:54.030Z,100530.92
2018-07-20T04:37:57.402Z,100528.73
2018-07-20T04:39:00.983Z,100523.97
2018-07-20T04:40:04.960Z,100527.92
2018-07-20T04:41:08.385Z,100526.53
2018-07-20T04:42:11.818Z,100527.71
2018-07-20T04:43:15.273Z,100528.14
2018-07-20T04:44:18.700Z,100520.97
2018-07-20T04:45:22.089Z,100529.91
2018-07-20T04:46:25.499Z,100529.31
2018-07-20T04:47:28.905Z,100526.32
2018-07-20T04:48:32.278Z,100523.33
2018-07-20T04:49:35.665Z,100524.93
2018-07-20T04:50:39.285Z,100528.52
2018-07-20T04:51:42.677Z,100533.27
2018-07-20T04:52:46.085Z,100527.12
2018-07-20T04:53:49.500Z,100523.75
2018-07-20T04:54:52.927Z,100515.78
2018-07-20T04:55:56.334Z,100517.98
2018-07-20T04:56:59.716Z,100519.95
2018-07-20T04:58:03.436Z,100518.35
2018-07-20T04:59:06.813Z,100524.72
2018-07-20T05:00:10.261Z,100531.67
2018-07-20T05:01:13.702Z,100527.50
2018-07-20T05:02:17.173Z,100528.67
2018-07-20T05:03:20.663Z,100530.06
2018-07-20T05:04:24.041Z,100527.88
2018-07-20T05:05:27.433Z,100530.66
2018-07-20T05:06:30.863Z,100525.65
2018-07-20T05:07:34.307Z,100520.09
2018-07-20T05:08:37.685Z,100521.48
2018-07-20T05:09:41.084Z,100533.19
2018-07-20T05:10:44.494Z,100519.88
2018-07-20T05:11:47.900Z,100521.02
2018-07-20T05:12:51.284Z,100526.58
2018-07-20T05:13:54.668Z,100528.22
2018-07-20T05:14:58.084Z,100520.22
2018-07-20T05:16:01.496Z,100535.73
2018-07-20T05:17:04.936Z,100529.36
2018-07-20T05:18:08.354Z,100528.77
2018-07-20T05:19:11.742Z,100521.02
2018-07-20T05:20:15.171Z,100530.75
2018-07-20T05:21:18.560Z,100524.98
2018-07-20T05:22:22.041Z,100530.41
2018-07-20T05:23:25.456Z,100524.60
2018-07-20T05:24:28.895Z,100533.78
2018-07-20T05:25:32.454Z,100527.76
2018-07-20T05:26:36.001Z,100527.76
2018-07-20T05:27:39.405Z,100534.71
2018-07-20T05:28:42.781Z,100526.95
2018-07-20T05:29:46.251Z,100528.94
2018-07-20T05:30:49.660Z,100531.72
2018-07-20T05:31:53.068Z,100528.13
2018-07-20T05:32:56.483Z,100528.72
2018-07-20T05:33:59.886Z,100530.11
2018-07-20T05:35:03.319Z,100530.48
2018-07-20T05:36:07.064Z,100526.69
2018-07-20T05:37:10.522Z,100530.27
2018-07-20T05:38:13.994Z,100528.88
2018-07-20T05:39:17.385Z,100532.47
2018-07-20T05:40:20.791Z,100532.25
2018-07-20T05:41:24.212Z,100535.83
2018-07-20T05:42:27.681Z,100532.25
2018-07-20T05:43:31.107Z,100528.88
2018-07-20T05:44:34.560Z,100526.27
2018-07-20T05:45:37.957Z,100528.67
2018-07-20T05:46:41.366Z,100523.11
2018-07-20T05:47:44.772Z,100529.47
2018-07-20T05:48:48.296Z,100528.08
2018-07-20T05:49:51.713Z,100530.48
2018-07-20T05:50:55.137Z,100529.69
2018-07-20T05:51:58.569Z,100533.64
2018-07-20T05:53:02.022Z,100528.30
2018-07-20T05:54:05.432Z,100526.91
2018-07-20T05:55:08.904Z,100529.09
2018-07-20T05:56:12.553Z,100528.08
2018-07-20T05:57:16.149Z,100531.02
2018-07-20T05:58:19.590Z,100532.78
2018-07-20T05:59:23.085Z,100531.18
2018-07-20T06:00:26.498Z,100530.75
2018-07-20T06:01:30.015Z,100528.56
2018-07-20T06:02:33.465Z,100531.77
2018-07-20T06:03:36.894Z,100530.97
2018-07-20T06:04:40.305Z,100521.52
2018-07-20T06:05:43.816Z,100528.26
2018-07-20T06:06:47.159Z,100524.83
2018-07-20T06:07:50.691Z,100527.19
2018-07-20T06:08:54.115Z,100530.03
2018-07-20T06:09:57.531Z,100526.39
2018-07-20T06:11:01.112Z,100529.33
2018-07-20T06:12:04.544Z,100524.25
2018-07-20T06:13:07.964Z,100522.92
2018-07-20T06:14:11.431Z,100526.44
2018-07-20T06:15:14.933Z,100523.60
2018-07-20T06:16:18.326Z,100526.66
2018-07-20T06:17:21.743Z,100525.17
2018-07-20T06:18:25.162Z,100529.66
2018-07-20T06:19:28.583Z,100527.61
2018-07-20T06:20:31.961Z,100521.16
2018-07-20T06:21:35.369Z,100526.28
2018-07-20T06:22:39.179Z,100519.92
2018-07-20T06:23:42.607Z,100523.66
2018-07-20T06:24:46.156Z,100519.42
2018-07-20T06:25:49.603Z,100529.30
2018-07-20T06:26:53.030Z,100531.48
2018-07-20T06:27:56.424Z,100523.74
2018-07-20T06:28:59.846Z,100527.44
2018-07-20T06:30:03.321Z,100528.03
2018-07-20T06:31:06.697Z,100525.98
2018-07-20T06:32:10.127Z,100526.14
2018-07-20T06:33:13.512Z,100529.50
2018-07-20T06:34:16.954Z,100529.87
2018-07-20T06:35:20.351Z,100536.44
2018-07-20T06:36:23.752Z,100537.18
2018-07-20T06:37:27.157Z,100539.73
2018-07-20T06:38:30.549Z,100531.99
2018-07-20T06:39:34.744Z,100531.63
2018-07-20T06:40:38.203Z,100531.99
2018-07-20T06:41:42.071Z,100536.96
2018-07-20T06:42:45.464Z,100528.41
2018-07-20T06:43:48.922Z,100523.56
2018-07-20T06:44:52.331Z,100525.64
2018-07-20T06:45:55.746Z,100524.15
2018-07-20T06:46:59.137Z,100524.03
2018-07-20T06:48:02.552Z,100521.96
2018-07-20T06:49:06.667Z,100528.90
2018-07-20T06:50:16.715Z,100522.91
2018-07-20T06:51:20.119Z,100525.84
2018-07-20T06:52:23.544Z,100526.57
2018-07-20T06:53:26.945Z,100528.55
2018-07-20T06:54:30.350Z,100533.66
2018-07-20T06:55:33.782Z,100531.00
2018-07-20T06:56:37.224Z,100524.06
2018-07-20T06:57:40.663Z,100529.49
2018-07-20T06:58:44.064Z,100522.55
2018-07-20T06:59:47.565Z,100523.94
2018-07-20T07:00:50.972Z,100530.52
2018-07-20T07:01:54.380Z,100525.55
2018-07-20T07:02:57.775Z,100527.89
2018-07-20T07:04:01.183Z,100519.09
2018-07-20T07:05:05.020Z,100527.09
2018-07-20T07:06:08.409Z,100526.98
2018-07-20T07:07:11.821Z,100520.27
2018-07-20T07:08:15.256Z,100520.84
2018-07-20T07:09:18.681Z,100521.06
2018-07-20T07:10:22.077Z,100529.06
2018-07-20T07:11:25.532Z,100524.80
2018-07-20T07:12:28.928Z,100529.17
2018-07-20T07:13:32.353Z,100526.03
2018-07-20T07:14:35.783Z,100528.81
2018-07-20T07:15:39.188Z,100526.62
2018-07-20T07:16:42.633Z,100521.80
2018-07-20T07:17:46.041Z,100523.99
2018-07-20T07:18:49.453Z,100520.56
2018-07-20T07:19:52.854Z,100522.90
2018-07-20T07:20:56.308Z,100521.73
2018-07-20T07:21:59.727Z,100521.95
2018-07-20T07:23:03.142Z,100523.33
2018-07-20T07:24:06.998Z,100522.90
2018-07-20T07:25:10.419Z,100520.70
2018-07-20T07:26:13.799Z,100522.53
2018-07-20T07:27:17.285Z,100520.12
2018-07-20T07:28:20.873Z,100522.90
2018-07-20T07:29:24.284Z,100520.56
2018-07-20T07:30:27.676Z,100522.38
2018-07-20T07:31:31.046Z,100521.43
2018-07-20T07:32:34.449Z,100518.87
2018-07-20T07:33:37.838Z,100523.84
2018-07-20T07:34:41.233Z,100524.06
2018-07-20T07:35:44.705Z,100519.34
2018-07-20T07:36:48.083Z,100521.75
2018-07-20T07:37:51.496Z,100519.78
2018-07-20T07:38:54.892Z,100520.00
2018-07-20T07:39:58.819Z,100524.38
2018-07-20T07:41:02.245Z,100518.24
2018-07-20T07:42:05.938Z,100515.25
2018-07-20T07:43:09.348Z,100507.36
2018-07-20T07:44:12.744Z,100511.73
2018-07-20T07:45:16.163Z,100508.37
2018-07-20T07:46:19.876Z,100508.59
2018-07-20T07:47:23.278Z,100512.98
2018-07-20T07:48:26.669Z,100510.20
2018-07-20T07:49:30.078Z,100506.62
2018-07-20T07:50:33.503Z,100509.77
2018-07-20T07:51:37.062Z,100500.48
2018-07-20T07:52:40.480Z,100509.61
2018-07-20T07:53:43.917Z,100504.65
2018-07-20T07:54:47.398Z,100510.42
2018-07-20T07:55:50.788Z,100510.78
2018-07-20T07:56:54.184Z,100514.36
2018-07-20T07:57:57.619Z,100513.78
2018-07-20T07:59:01.066Z,100508.59
2018-07-20T08:00:05.216Z,100517.73
2018-07-20T08:01:08.651Z,100512.17
2018-07-20T08:02:12.104Z,100517.51
2018-07-20T08:03:15.641Z,100509.77
2018-07-20T08:04:18.985Z,100512.17
2018-07-20T08:05:22.373Z,100511.59
2018-07-20T08:06:25.772Z,100512.98
2018-07-20T08:07:29.163Z,100515.97
2018-07-20T08:08:32.685Z,100507.42
2018-07-20T08:09:36.130Z,100510.78
2018-07-20T08:10:39.597Z,100517.36
2018-07-20T08:11:43.043Z,100509.03
2018-07-20T08:12:46.489Z,100513.20
2018-07-20T08:13:50.695Z,100506.69
2018-07-20T08:14:54.148Z,100510.48
2018-07-20T08:15:57.553Z,100507.13
2018-07-20T08:17:00.968Z,100505.25
2018-07-20T08:18:04.423Z,100502.69
2018-07-20T08:19:07.844Z,100500.93
2018-07-20T08:20:11.523Z,100502.53
2018-07-20T08:21:14.954Z,100498.74
2018-07-20T08:22:18.361Z,100508.67
2018-07-20T08:23:21.927Z,100500.41
2018-07-20T08:24:25.320Z,100495.45
2018-07-20T08:25:28.748Z,100497.05
2018-07-20T08:26:32.174Z,100496.25
2018-07-20T08:27:35.576Z,100495.66
2018-07-20T08:28:38.976Z,100504.20
2018-07-20T08:29:42.349Z,100496.68
2018-07-20T08:30:45.788Z,100494.12
2018-07-20T08:31:49.207Z,100500.14
2018-07-20T08:32:52.660Z,100498.37
2018-07-20T08:33:56.165Z,100499.40
2018-07-20T08:34:59.551Z,100496.03
2018-07-20T08:36:03.002Z,100496.69
2018-07-20T08:37:06.520Z,100492.52
2018-07-20T08:38:09.972Z,100491.13
2018-07-20T08:39:13.375Z,100492.15
2018-07-20T08:40:16.814Z,100490.61
2018-07-20T08:41:20.718Z,100486.66
2018-07-20T08:42:24.205Z,100491.04
2018-07-20T08:43:27.628Z,100486.16
2018-07-20T08:44:31.014Z,100489.16
2018-07-20T08:45:34.448Z,100482.27
2018-07-20T08:46:37.969Z,100484.68
2018-07-20T08:47:41.310Z,100484.34
2018-07-20T08:48:44.745Z,100481.41
2018-07-20T08:49:48.144Z,100481.63
2018-07-20T08:50:51.540Z,100477.23
2018-07-20T08:51:55.039Z,100479.27
2018-07-20T08:52:58.432Z,100475.94
2018-07-20T08:54:01.921Z,100482.88
2018-07-20T08:55:05.541Z,100471.98
2018-07-20T08:56:08.963Z,100478.93
2018-07-20T08:57:12.396Z,100475.56
2018-07-20T08:58:15.797Z,100475.35
2018-07-20T08:59:19.316Z,100478.34
2018-07-20T09:00:22.757Z,100473.96
2018-07-20T09:01:26.170Z,100475.56
2018-07-20T09:02:29.592Z,100475.56
2018-07-20T09:03:33.039Z,100473.00
2018-07-20T09:04:36.696Z,100476.00
2018-07-20T09:05:40.123Z,100470.22
2018-07-20T09:06:43.644Z,100473.22
2018-07-20T09:07:47.042Z,100469.27
2018-07-20T09:08:50.464Z,100470.66
2018-07-20T09:09:53.885Z,100472.84
2018-07-20T09:10:57.283Z,100463.70
2018-07-20T09:12:00.715Z,100469.64
2018-07-20T09:13:04.129Z,100467.45
2018-07-20T09:14:07.538Z,100467.23
2018-07-20T09:15:10.940Z,100461.80
2018-07-20T09:16:14.475Z,100467.14
2018-07-20T09:17:17.884Z,100465.54
2018-07-20T09:18:21.298Z,100461.95
2018-07-20T09:19:24.810Z,100467.52
2018-07-20T09:20:28.280Z,100465.17
2018-07-20T09:21:31.762Z,100468.84
2018-07-20T09:22:35.266Z,100464.45
2018-07-20T09:23:38.696Z,100467.02
2018-07-20T09:24:42.291Z,100466.55
2018-07-20T09:25:45.691Z,100466.22
2018-07-20T09:26:49.104Z,100467.02
2018-07-20T09:27:52.529Z,100469.20
2018-07-20T09:28:55.961Z,100467.45
2018-07-20T09:29:59.342Z,100470.01
2018-07-20T09:31:02.754Z,100464.45
2018-07-20T09:32:06.639Z,100470.81
2018-07-20T09:33:10.222Z,100467.45
2018-07-20T09:34:13.754Z,100469.64
2018-07-20T09:35:17.153Z,100468.25
2018-07-20T09:36:20.628Z,100469.27
2018-07-20T09:37:24.055Z,100463.49
2018-07-20T09:38:27.468Z,100464.88
2018-07-20T09:39:30.900Z,100469.05
2018-07-20T09:40:34.530Z,100464.88
2018-07-20T09:41:38.085Z,100464.88
2018-07-20T09:42:41.595Z,100465.69
2018-07-20T09:43:45.128Z,100463.49
2018-07-20T09:44:48.780Z,100460.34
2018-07-20T09:45:52.306Z,100457.35
2018-07-20T09:46:55.705Z,100464.51
2018-07-20T09:47:59.144Z,100456.98
2018-07-20T09:49:05.645Z,100455.38
2018-07-20T09:50:09.104Z,100453.61
2018-07-20T09:51:12.610Z,100450.03
2018-07-20T09:52:16.322Z,100450.62
2018-07-20T09:53:19.966Z,100448.64
2018-07-20T09:54:23.719Z,100452.01
2018-07-20T09:55:27.202Z,100453.02
2018-07-20T09:56:30.721Z,100448.05
2018-07-20T09:57:34.156Z,100453.02
2018-07-20T09:58:37.598Z,100448.27
2018-07-20T09:59:41.612Z,100450.46
2018-07-20T10:00:49.558Z,100456.02
2018-07-20T10:01:53.844Z,100449.28
2018-07-20T10:02:57.594Z,100451.84
2018-07-20T10:04:01.069Z,100452.65
2018-07-20T10:05:04.602Z,100453.45
2018-07-20T10:06:08.019Z,100456.23
2018-07-20T10:07:11.624Z,100451.48
2018-07-20T10:08:15.048Z,100449.28
2018-07-20T10:09:18.444Z,100442.55
2018-07-20T10:10:21.845Z,100443.35
2018-07-20T10:11:25.476Z,100443.14
2018-07-20T10:12:28.930Z,100449.71
2018-07-20T10:13:32.334Z,100448.33
2018-07-20T10:14:35.736Z,100446.94
2018-07-20T10:15:40.091Z,100441.38
2018-07-20T10:16:43.508Z,100437.20
2018-07-20T10:17:46.941Z,100438.22
2018-07-20T10:18:50.346Z,100438.44
2018-07-20T10:19:53.772Z,100435.31
2018-07-20T10:20:57.233Z,100436.22
2018-07-20T10:22:00.707Z,100434.63
2018-07-20T10:23:04.214Z,100435.00
2018-07-20T10:24:07.624Z,100430.83
2018-07-20T10:25:11.158Z,100432.22
2018-07-20T10:26:14.563Z,100433.61
2018-07-20T10:27:17.994Z,100432.59
2018-07-20T10:28:21.468Z,100427.41
2018-07-20T10:29:24.863Z,100431.58
2018-07-20T10:30:28.261Z,100440.13
2018-07-20T10:31:31.655Z,100436.33
2018-07-20T10:32:35.073Z,100428.58
2018-07-20T10:33:38.532Z,100436.70
2018-07-20T10:34:42.055Z,100431.70
2018-07-20T10:35:45.443Z,100430.91
2018-07-20T10:36:48.963Z,100428.13
2018-07-20T10:37:52.510Z,100429.52
2018-07-20T10:38:55.907Z,100430.10
2018-07-20T10:39:59.304Z,100427.33
2018-07-20T10:41:02.777Z,100427.11
2018-07-20T10:42:06.246Z,100425.72
2018-07-20T10:43:09.721Z,100424.92
2018-07-20T10:44:13.475Z,100425.72
2018-07-20T10:45:16.942Z,100425.50
2018-07-20T10:46:20.360Z,100422.14
2018-07-20T10:47:23.752Z,100420.53
2018-07-20T10:48:27.172Z,100423.31
2018-07-20T10:49:30.585Z,100426.09
2018-07-20T10:50:34.004Z,100422.73
2018-07-20T10:51:37.412Z,100414.98
2018-07-20T10:52:40.818Z,100420.53
2018-07-20T10:53:44.324Z,100426.09
2018-07-20T10:54:47.752Z,100420.32
2018-07-20T10:55:51.182Z,100424.70
2018-07-20T10:56:54.603Z,100416.16
2018-07-20T10:57:58.139Z,100410.81
2018-07-20T10:59:01.562Z,100416.16
2018-07-20T11:00:05.494Z,100414.98
2018-07-20T11:01:08.900Z,100414.77
2018-07-20T11:02:12.321Z,100415.56
2018-07-20T11:03:15.771Z,100412.78
2018-07-20T11:04:19.216Z,100416.95
2018-07-20T11:05:22.633Z,100413.37
2018-07-20T11:06:26.053Z,100410.59
2018-07-20T11:07:29.457Z,100412.78
2018-07-20T11:08:32.834Z,100411.98
2018-07-20T11:09:36.260Z,100407.81
2018-07-20T11:10:39.700Z,100406.42
2018-07-20T11:11:43.108Z,100405.03
2018-07-20T11:12:46.509Z,100404.45
2018-07-20T11:13:50.002Z,100401.45
2018-07-20T11:14:53.505Z,100399.48
2018-07-20T11:15:56.919Z,100399.48
2018-07-20T11:17:00.327Z,100395.91
2018-07-20T11:18:03.725Z,100396.70
2018-07-20T11:19:07.128Z,100399.48
2018-07-20T11:20:10.532Z,100393.92
2018-07-20T11:21:13.949Z,100388.63
2018-07-20T11:22:17.361Z,100387.83
2018-07-20T11:23:20.782Z,100387.03
2018-07-20T11:24:24.180Z,100387.62
2018-07-20T11:25:27.626Z,100389.46
2018-07-20T11:26:31.026Z,100389.46
2018-07-20T11:27:34.428Z,100381.12
2018-07-20T11:28:37.976Z,100384.97
2018-07-20T11:29:41.510Z,100385.77
2018-07-20T11:30:44.942Z,100385.19
2018-07-20T11:31:48.321Z,100386.20
2018-07-20T11:32:51.720Z,100385.61
2018-07-20T11:33:55.098Z,100384.22
2018-07-20T11:34:58.502Z,100382.24
2018-07-20T11:36:01.874Z,100380.48
2018-07-20T11:37:05.273Z,100383.47
2018-07-20T11:38:08.676Z,100379.52
2018-07-20T11:39:12.077Z,100376.95
2018-07-20T11:40:15.512Z,100379.22
2018-07-20T11:41:18.899Z,100382.58
2018-07-20T11:42:22.330Z,100380.39
2018-07-20T11:43:26.190Z,100376.01
2018-07-20T11:44:29.592Z,100378.20
2018-07-20T11:45:33.133Z,100382.38
2018-07-20T11:46:36.550Z,100380.39
2018-07-20T11:47:40.283Z,100376.01
2018-07-20T11:48:44.455Z,100380.18
2018-07-20T11:49:48.261Z,100374.83
2018-07-20T11:50:52.735Z,100374.38
2018-07-20T11:51:56.922Z,100376.22
2018-07-20T11:53:00.675Z,100365.48
2018-07-20T11:54:05.411Z,100372.27
2018-07-20T11:55:09.457Z,100367.30
2018-07-20T11:56:13.424Z,100363.13
2018-07-20T11:57:17.552Z,100361.73
2018-07-20T11:58:20.964Z,100363.34
2018-07-20T11:59:24.437Z,100362.75
2018-07-20T12:00:27.868Z,100363.55
2018-07-20T12:01:32.388Z,100361.57
2018-07-20T12:02:36.697Z,100360.39
2018-07-20T12:03:41.288Z,100361.36
2018-07-20T12:04:45.742Z,100362.96